This is the latest recevied weather packets stored in our database for station/object PD2SKZ-12. If no packets are shown the sender has not sent any weather packets the latest 10 day(s).
| Time | Temp. | Humidity | Pressure | Rain* | Wind** | Luminosity | Snow |
|---|---|---|---|---|---|---|---|
| 1777471993 | 20° C | 27% | 1026.3 hPa | 0 mm | - | - | - |
| 1777468343 | 19.44° C | 27% | 1026.5 hPa | 0 mm | - | - | - |
| 1777467442 | 18.89° C | 28% | 1026.7 hPa | 0 mm | - | - | - |
| 1777464742 | 18.33° C | 29% | 1026.9 hPa | 0 mm | - | - | - |
| 1777464142 | 18.33° C | 29% | 1027 hPa | 0 mm | - | - | - |
| 1777463843 | 18.89° C | 28% | 1027.1 hPa | 0 mm | - | - | - |
| 1777462343 | 17.78° C | 30% | 1027.2 hPa | 0 mm | - | - | - |
| 1777461762 | 17.78° C | 30% | 1027.2 hPa | 0 mm | - | - | - |
| 1777458443 | 17.22° C | 32% | 1027.4 hPa | 0 mm | - | - | - |
| 1777457843 | 17.22° C | 33% | 1027.4 hPa | 0 mm | - | - | - |
| 1777457543 | 16.67° C | 34% | 1027.4 hPa | 0 mm | - | - | - |
| 1777454844 | 16.11° C | 38% | 1027.6 hPa | 0 mm | - | - | - |
| 1777454543 | 15.56° C | 37% | 1027.6 hPa | 0 mm | - | - | - |
| 1777453643 | 15° C | 40% | 1027.8 hPa | 0 mm | - | - | - |
| 1777451863 | 14.44° C | 40% | 1027.9 hPa | 0 mm | - | - | - |
| 1777450043 | 13.33° C | 42% | 1027.9 hPa | 0 mm | - | - | - |
| 1777449743 | 13.33° C | 42% | 1027.9 hPa | 0 mm | - | - | - |
| 1777449144 | 12.78° C | 42% | 1027.9 hPa | 0 mm | - | - | - |
| 1777447693 | 12.78° C | 43% | 1027.8 hPa | 0 mm | - | - | - |
| 1777446743 | 12.78° C | 44% | 1027.7 hPa | 0 mm | - | - | - |
| 1777442843 | 10° C | 50% | 1027.6 hPa | 0 mm | - | - | - |
| 1777441943 | 10° C | 51% | 1027.4 hPa | 0 mm | - | - | - |
| 1777439543 | 8.89° C | 54% | 1027.1 hPa | 0 mm | - | - | - |
| 1777435644 | 8.33° C | 55% | 1026.4 hPa | 0 mm | - | - | - |
| 1777432643 | 8.89° C | 52% | 1026.5 hPa | 0 mm | - | - | - |
* Rain latest hour (hover to see other rain measurements)
** Current wind speed in m/s (hover to see current wind gust speed)